sensor_id;sensor_type;location;lat;lon;timestamp;temperature;humidity
40289;DHT22;28991;52.028;5.526;2022-10-16T00:00:14;20.70;60.60
40289;DHT22;28991;52.028;5.526;2022-10-16T00:02:39;20.50;60.50
40289;DHT22;28991;52.028;5.526;2022-10-16T00:05:05;20.50;60.50
40289;DHT22;28991;52.028;5.526;2022-10-16T00:07:30;20.60;60.60
40289;DHT22;28991;52.028;5.526;2022-10-16T00:09:56;20.60;60.70
40289;DHT22;28991;52.028;5.526;2022-10-16T00:12:21;20.60;60.60
40289;DHT22;28991;52.028;5.526;2022-10-16T00:14:47;20.60;61.20
40289;DHT22;28991;52.028;5.526;2022-10-16T00:17:12;20.90;60.80
40289;DHT22;28991;52.028;5.526;2022-10-16T00:19:38;20.60;60.60
40289;DHT22;28991;52.028;5.526;2022-10-16T00:22:03;20.50;60.60
40289;DHT22;28991;52.028;5.526;2022-10-16T00:24:29;20.50;60.60
40289;DHT22;28991;52.028;5.526;2022-10-16T00:26:54;20.50;60.60
40289;DHT22;28991;52.028;5.526;2022-10-16T00:29:19;20.50;61.10
40289;DHT22;28991;52.028;5.526;2022-10-16T00:31:45;20.60;60.60
40289;DHT22;28991;52.028;5.526;2022-10-16T00:34:10;20.60;60.60
40289;DHT22;28991;52.028;5.526;2022-10-16T00:36:36;20.60;60.60
40289;DHT22;28991;52.028;5.526;2022-10-16T00:39:02;20.50;60.60
40289;DHT22;28991;52.028;5.526;2022-10-16T00:41:28;20.60;60.60
40289;DHT22;28991;52.028;5.526;2022-10-16T00:43:55;20.60;60.60
40289;DHT22;28991;52.028;5.526;2022-10-16T00:46:31;20.50;60.60
40289;DHT22;28991;52.028;5.526;2022-10-16T00:49:08;20.50;60.60
40289;DHT22;28991;52.028;5.526;2022-10-16T00:51:41;20.50;60.60
40289;DHT22;28991;52.028;5.526;2022-10-16T00:54:13;20.50;60.50
40289;DHT22;28991;52.028;5.526;2022-10-16T00:56:40;20.70;60.70
40289;DHT22;28991;52.028;5.526;2022-10-16T00:59:07;20.50;60.60
40289;DHT22;28991;52.028;5.526;2022-10-16T01:01:36;20.50;60.60
40289;DHT22;28991;52.028;5.526;2022-10-16T01:04:01;20.50;60.60
40289;DHT22;28991;52.028;5.526;2022-10-16T01:12:14;20.50;60.60
40289;DHT22;28991;52.028;5.526;2022-10-16T01:14:25;20.50;60.60
40289;DHT22;28991;52.028;5.526;2022-10-16T01:16:59;20.50;60.60
40289;DHT22;28991;52.028;5.526;2022-10-16T01:19:31;21.00;60.90
40289;DHT22;28991;52.028;5.526;2022-10-16T01:22:01;20.50;60.50
40289;DHT22;28991;52.028;5.526;2022-10-16T01:24:31;20.50;60.50
40289;DHT22;28991;52.028;5.526;2022-10-16T01:32:05;20.50;60.60
40289;DHT22;28991;52.028;5.526;2022-10-16T01:34:35;20.50;60.50
40289;DHT22;28991;52.028;5.526;2022-10-16T01:37:04;20.50;60.50
40289;DHT22;28991;52.028;5.526;2022-10-16T01:39:31;20.50;60.50
40289;DHT22;28991;52.028;5.526;2022-10-16T01:42:00;21.00;61.40
40289;DHT22;28991;52.028;5.526;2022-10-16T01:44:28;20.50;60.50
40289;DHT22;28991;52.028;5.526;2022-10-16T01:46:54;20.50;60.50
40289;DHT22;28991;52.028;5.526;2022-10-16T01:49:21;20.50;60.50
40289;DHT22;28991;52.028;5.526;2022-10-16T01:51:49;20.50;60.50
40289;DHT22;28991;52.028;5.526;2022-10-16T01:54:16;20.50;60.50
40289;DHT22;28991;52.028;5.526;2022-10-16T01:56:43;20.50;60.50
40289;DHT22;28991;52.028;5.526;2022-10-16T01:59:12;20.50;60.50
40289;DHT22;28991;52.028;5.526;2022-10-16T02:01:39;20.50;60.50
40289;DHT22;28991;52.028;5.526;2022-10-16T02:04:15;20.50;60.50
40289;DHT22;28991;52.028;5.526;2022-10-16T02:06:41;20.50;60.50
40289;DHT22;28991;52.028;5.526;2022-10-16T02:09:06;20.50;60.50
40289;DHT22;28991;52.028;5.526;2022-10-16T02:11:32;20.50;60.50
40289;DHT22;28991;52.028;5.526;2022-10-16T02:14:01;20.50;60.50
40289;DHT22;28991;52.028;5.526;2022-10-16T02:16:41;20.50;60.50
40289;DHT22;28991;52.028;5.526;2022-10-16T02:19:07;20.50;60.50
40289;DHT22;28991;52.028;5.526;2022-10-16T02:29:28;20.50;60.50
40289;DHT22;28991;52.028;5.526;2022-10-16T02:31:55;20.60;60.50
40289;DHT22;28991;52.028;5.526;2022-10-16T02:34:21;20.50;60.50
40289;DHT22;28991;52.028;5.526;2022-10-16T02:36:48;20.50;60.50
40289;DHT22;28991;52.028;5.526;2022-10-16T02:39:14;20.50;60.50
40289;DHT22;28991;52.028;5.526;2022-10-16T02:41:41;20.40;60.40
40289;DHT22;28991;52.028;5.526;2022-10-16T02:44:06;20.50;60.50
40289;DHT22;28991;52.028;5.526;2022-10-16T02:46:32;20.50;60.50
40289;DHT22;28991;52.028;5.526;2022-10-16T02:48:57;20.50;60.50
40289;DHT22;28991;52.028;5.526;2022-10-16T02:51:23;20.50;60.50
40289;DHT22;28991;52.028;5.526;2022-10-16T02:53:48;20.50;60.50
40289;DHT22;28991;52.028;5.526;2022-10-16T02:56:13;20.50;60.50
40289;DHT22;28991;52.028;5.526;2022-10-16T02:58:39;20.50;60.50
40289;DHT22;28991;52.028;5.526;2022-10-16T03:01:04;20.60;60.50
40289;DHT22;28991;52.028;5.526;2022-10-16T03:03:30;20.50;60.50
40289;DHT22;28991;52.028;5.526;2022-10-16T03:05:55;20.50;60.50
40289;DHT22;28991;52.028;5.526;2022-10-16T03:08:21;20.40;60.40
40289;DHT22;28991;52.028;5.526;2022-10-16T03:10:50;20.40;60.40
40289;DHT22;28991;52.028;5.526;2022-10-16T03:13:16;20.40;60.40
40289;DHT22;28991;52.028;5.526;2022-10-16T03:15:42;20.40;60.40
40289;DHT22;28991;52.028;5.526;2022-10-16T03:18:07;20.50;60.50
40289;DHT22;28991;52.028;5.526;2022-10-16T03:20:32;20.40;60.40
40289;DHT22;28991;52.028;5.526;2022-10-16T03:22:58;20.40;60.40
40289;DHT22;28991;52.028;5.526;2022-10-16T03:25:23;20.40;60.40
40289;DHT22;28991;52.028;5.526;2022-10-16T03:27:49;20.50;60.50
40289;DHT22;28991;52.028;5.526;2022-10-16T03:30:14;20.40;60.40
40289;DHT22;28991;52.028;5.526;2022-10-16T03:32:40;20.50;60.50
40289;DHT22;28991;52.028;5.526;2022-10-16T03:35:06;20.50;60.50
40289;DHT22;28991;52.028;5.526;2022-10-16T03:37:31;20.40;60.40
40289;DHT22;28991;52.028;5.526;2022-10-16T03:39:57;20.50;60.50
40289;DHT22;28991;52.028;5.526;2022-10-16T03:42:23;20.40;60.40
40289;DHT22;28991;52.028;5.526;2022-10-16T03:44:49;20.50;60.50
40289;DHT22;28991;52.028;5.526;2022-10-16T03:47:15;20.40;60.40
40289;DHT22;28991;52.028;5.526;2022-10-16T03:49:40;20.40;60.40
40289;DHT22;28991;52.028;5.526;2022-10-16T03:52:06;20.40;60.40
40289;DHT22;28991;52.028;5.526;2022-10-16T03:54:31;20.50;60.50
40289;DHT22;28991;52.028;5.526;2022-10-16T03:56:56;20.40;60.40
40289;DHT22;28991;52.028;5.526;2022-10-16T03:59:22;20.40;60.40
40289;DHT22;28991;52.028;5.526;2022-10-16T04:01:47;20.40;60.40
40289;DHT22;28991;52.028;5.526;2022-10-16T04:04:13;20.90;60.70
40289;DHT22;28991;52.028;5.526;2022-10-16T04:06:38;20.50;60.50
40289;DHT22;28991;52.028;5.526;2022-10-16T04:09:04;20.40;60.40
40289;DHT22;28991;52.028;5.526;2022-10-16T04:11:29;20.40;60.40
40289;DHT22;28991;52.028;5.526;2022-10-16T04:13:55;20.40;60.40
40289;DHT22;28991;52.028;5.526;2022-10-16T04:16:20;20.70;60.60
40289;DHT22;28991;52.028;5.526;2022-10-16T04:18:46;20.50;60.50
40289;DHT22;28991;52.028;5.526;2022-10-16T04:21:11;20.60;60.60
40289;DHT22;28991;52.028;5.526;2022-10-16T04:23:36;20.40;60.40
40289;DHT22;28991;52.028;5.526;2022-10-16T04:26:02;20.40;60.40
40289;DHT22;28991;52.028;5.526;2022-10-16T04:28:28;20.40;60.40
40289;DHT22;28991;52.028;5.526;2022-10-16T04:30:53;20.30;60.40
40289;DHT22;28991;52.028;5.526;2022-10-16T04:33:19;20.50;60.50
40289;DHT22;28991;52.028;5.526;2022-10-16T04:35:44;20.40;60.40
40289;DHT22;28991;52.028;5.526;2022-10-16T04:38:10;20.40;60.40
40289;DHT22;28991;52.028;5.526;2022-10-16T04:40:35;20.40;60.40
40289;DHT22;28991;52.028;5.526;2022-10-16T04:43:03;20.40;60.30
40289;DHT22;28991;52.028;5.526;2022-10-16T04:45:29;20.40;60.20
40289;DHT22;28991;52.028;5.526;2022-10-16T04:47:58;20.40;60.00
40289;DHT22;28991;52.028;5.526;2022-10-16T04:50:23;20.40;59.90
40289;DHT22;28991;52.028;5.526;2022-10-16T04:52:49;20.40;59.80
40289;DHT22;28991;52.028;5.526;2022-10-16T04:55:14;20.40;59.70
40289;DHT22;28991;52.028;5.526;2022-10-16T04:57:40;20.40;59.60
40289;DHT22;28991;52.028;5.526;2022-10-16T05:00:06;20.30;59.50
40289;DHT22;28991;52.028;5.526;2022-10-16T05:02:33;20.40;59.40
40289;DHT22;28991;52.028;5.526;2022-10-16T05:04:59;20.30;59.30
40289;DHT22;28991;52.028;5.526;2022-10-16T05:07:24;20.40;59.10
40289;DHT22;28991;52.028;5.526;2022-10-16T05:09:49;20.40;59.10
40289;DHT22;28991;52.028;5.526;2022-10-16T05:12:15;20.40;58.80
40289;DHT22;28991;52.028;5.526;2022-10-16T05:14:40;20.40;58.60
40289;DHT22;28991;52.028;5.526;2022-10-16T05:17:06;20.50;58.50
40289;DHT22;28991;52.028;5.526;2022-10-16T05:19:31;20.50;58.40
40289;DHT22;28991;52.028;5.526;2022-10-16T05:21:57;20.60;58.40
40289;DHT22;28991;52.028;5.526;2022-10-16T05:24:22;20.50;58.10
40289;DHT22;28991;52.028;5.526;2022-10-16T05:26:48;20.60;58.10
40289;DHT22;28991;52.028;5.526;2022-10-16T05:29:13;20.60;58.00
40289;DHT22;28991;52.028;5.526;2022-10-16T05:31:39;20.70;57.90
40289;DHT22;28991;52.028;5.526;2022-10-16T05:34:04;20.70;57.70
40289;DHT22;28991;52.028;5.526;2022-10-16T05:36:30;20.60;57.60
40289;DHT22;28991;52.028;5.526;2022-10-16T05:38:55;20.70;57.60
40289;DHT22;28991;52.028;5.526;2022-10-16T05:41:21;20.70;57.50
40289;DHT22;28991;52.028;5.526;2022-10-16T05:43:47;20.70;57.50
40289;DHT22;28991;52.028;5.526;2022-10-16T05:46:13;20.70;57.30
40289;DHT22;28991;52.028;5.526;2022-10-16T05:48:38;20.70;57.30
40289;DHT22;28991;52.028;5.526;2022-10-16T05:51:05;20.70;57.20
40289;DHT22;28991;52.028;5.526;2022-10-16T05:53:32;20.80;57.20
40289;DHT22;28991;52.028;5.526;2022-10-16T05:55:58;20.70;57.20
40289;DHT22;28991;52.028;5.526;2022-10-16T05:58:24;20.60;57.10
40289;DHT22;28991;52.028;5.526;2022-10-16T06:00:53;20.80;57.00
40289;DHT22;28991;52.028;5.526;2022-10-16T06:03:18;20.70;57.00
40289;DHT22;28991;52.028;5.526;2022-10-16T06:05:44;20.90;57.00
40289;DHT22;28991;52.028;5.526;2022-10-16T06:08:09;20.80;56.90
40289;DHT22;28991;52.028;5.526;2022-10-16T06:10:35;20.80;56.90
40289;DHT22;28991;52.028;5.526;2022-10-16T06:13:00;20.80;57.00
40289;DHT22;28991;52.028;5.526;2022-10-16T06:15:26;20.80;57.00
40289;DHT22;28991;52.028;5.526;2022-10-16T06:17:51;20.70;56.80
40289;DHT22;28991;52.028;5.526;2022-10-16T06:20:16;20.70;56.80
40289;DHT22;28991;52.028;5.526;2022-10-16T06:22:42;20.80;56.80
40289;DHT22;28991;52.028;5.526;2022-10-16T06:25:07;20.70;56.80
40289;DHT22;28991;52.028;5.526;2022-10-16T06:27:33;20.70;56.70
40289;DHT22;28991;52.028;5.526;2022-10-16T06:29:58;20.70;56.70
40289;DHT22;28991;52.028;5.526;2022-10-16T06:32:24;20.80;57.40
40289;DHT22;28991;52.028;5.526;2022-10-16T06:34:49;20.80;56.80
40289;DHT22;28991;52.028;5.526;2022-10-16T06:37:15;21.10;56.90
40289;DHT22;28991;52.028;5.526;2022-10-16T06:39:40;20.90;56.80
40289;DHT22;28991;52.028;5.526;2022-10-16T06:42:06;20.80;56.80
40289;DHT22;28991;52.028;5.526;2022-10-16T06:44:31;20.80;56.80
40289;DHT22;28991;52.028;5.526;2022-10-16T06:46:56;21.40;57.10
40289;DHT22;28991;52.028;5.526;2022-10-16T06:49:22;20.70;56.70
40289;DHT22;28991;52.028;5.526;2022-10-16T06:51:48;20.80;56.70
40289;DHT22;28991;52.028;5.526;2022-10-16T06:54:14;20.80;56.70
40289;DHT22;28991;52.028;5.526;2022-10-16T06:56:40;20.80;56.80
40289;DHT22;28991;52.028;5.526;2022-10-16T06:59:05;20.80;56.70
40289;DHT22;28991;52.028;5.526;2022-10-16T07:01:31;20.80;56.70
40289;DHT22;28991;52.028;5.526;2022-10-16T07:03:57;20.80;56.70
40289;DHT22;28991;52.028;5.526;2022-10-16T07:06:23;20.80;56.60
40289;DHT22;28991;52.028;5.526;2022-10-16T07:08:50;20.80;56.70
40289;DHT22;28991;52.028;5.526;2022-10-16T07:11:16;20.80;56.70
40289;DHT22;28991;52.028;5.526;2022-10-16T07:13:43;20.80;56.60
40289;DHT22;28991;52.028;5.526;2022-10-16T07:16:10;20.80;56.70
40289;DHT22;28991;52.028;5.526;2022-10-16T07:18:35;21.00;56.70
40289;DHT22;28991;52.028;5.526;2022-10-16T07:21:05;20.90;56.70
40289;DHT22;28991;52.028;5.526;2022-10-16T07:23:30;20.80;56.60
40289;DHT22;28991;52.028;5.526;2022-10-16T07:25:56;20.90;56.80
40289;DHT22;28991;52.028;5.526;2022-10-16T07:28:21;20.90;56.80
40289;DHT22;28991;52.028;5.526;2022-10-16T07:30:47;20.90;56.80
40289;DHT22;28991;52.028;5.526;2022-10-16T07:33:12;20.90;56.80
40289;DHT22;28991;52.028;5.526;2022-10-16T07:35:38;20.90;56.80
40289;DHT22;28991;52.028;5.526;2022-10-16T07:38:12;21.20;56.90
40289;DHT22;28991;52.028;5.526;2022-10-16T07:40:37;20.90;56.70
40289;DHT22;28991;52.028;5.526;2022-10-16T07:43:02;20.90;56.80
40289;DHT22;28991;52.028;5.526;2022-10-16T07:45:30;20.90;56.80
40289;DHT22;28991;52.028;5.526;2022-10-16T07:47:56;20.90;56.80
40289;DHT22;28991;52.028;5.526;2022-10-16T07:50:21;20.90;56.80
40289;DHT22;28991;52.028;5.526;2022-10-16T07:52:46;20.90;56.80
40289;DHT22;28991;52.028;5.526;2022-10-16T07:55:12;20.90;56.80
40289;DHT22;28991;52.028;5.526;2022-10-16T07:57:37;20.90;56.80
40289;DHT22;28991;52.028;5.526;2022-10-16T08:00:03;21.00;56.80
40289;DHT22;28991;52.028;5.526;2022-10-16T08:02:28;20.90;56.90
40289;DHT22;28991;52.028;5.526;2022-10-16T08:04:54;21.00;56.90
40289;DHT22;28991;52.028;5.526;2022-10-16T08:07:19;21.00;56.90
40289;DHT22;28991;52.028;5.526;2022-10-16T08:09:48;21.30;57.00
40289;DHT22;28991;52.028;5.526;2022-10-16T08:12:13;21.00;56.80
40289;DHT22;28991;52.028;5.526;2022-10-16T08:14:39;21.80;57.20
40289;DHT22;28991;52.028;5.526;2022-10-16T08:17:04;21.50;56.90
40289;DHT22;28991;52.028;5.526;2022-10-16T08:19:30;21.20;56.60
40289;DHT22;28991;52.028;5.526;2022-10-16T08:21:56;21.20;56.50
40289;DHT22;28991;52.028;5.526;2022-10-16T08:24:22;21.30;56.40
40289;DHT22;28991;52.028;5.526;2022-10-16T08:26:48;21.40;56.30
40289;DHT22;28991;52.028;5.526;2022-10-16T08:29:14;21.40;56.20
40289;DHT22;28991;52.028;5.526;2022-10-16T08:31:39;21.50;56.20
40289;DHT22;28991;52.028;5.526;2022-10-16T08:34:05;21.60;56.10
40289;DHT22;28991;52.028;5.526;2022-10-16T08:36:30;21.70;56.10
40289;DHT22;28991;52.028;5.526;2022-10-16T08:38:56;21.60;55.90
40289;DHT22;28991;52.028;5.526;2022-10-16T08:49:35;21.90;55.60
40289;DHT22;28991;52.028;5.526;2022-10-16T08:52:02;21.90;55.50
40289;DHT22;28991;52.028;5.526;2022-10-16T08:56:56;22.20;55.50
40289;DHT22;28991;52.028;5.526;2022-10-16T08:59:22;22.00;55.30
40289;DHT22;28991;52.028;5.526;2022-10-16T09:01:49;22.10;55.40
40289;DHT22;28991;52.028;5.526;2022-10-16T09:06:57;22.10;55.40
40289;DHT22;28991;52.028;5.526;2022-10-16T09:12:12;22.20;55.20
40289;DHT22;28991;52.028;5.526;2022-10-16T09:14:50;22.20;55.20
40289;DHT22;28991;52.028;5.526;2022-10-16T09:19:55;22.30;55.20
40289;DHT22;28991;52.028;5.526;2022-10-16T09:22:24;22.30;55.10
40289;DHT22;28991;52.028;5.526;2022-10-16T09:24:50;22.30;55.10
40289;DHT22;28991;52.028;5.526;2022-10-16T09:27:15;22.30;55.00
40289;DHT22;28991;52.028;5.526;2022-10-16T09:29:41;22.50;55.10
40289;DHT22;28991;52.028;5.526;2022-10-16T09:32:27;22.50;55.10
40289;DHT22;28991;52.028;5.526;2022-10-16T09:34:53;22.40;55.00
40289;DHT22;28991;52.028;5.526;2022-10-16T09:37:21;22.70;55.10
40289;DHT22;28991;52.028;5.526;2022-10-16T09:39:54;22.50;55.00
40289;DHT22;28991;52.028;5.526;2022-10-16T09:42:23;22.50;55.00
40289;DHT22;28991;52.028;5.526;2022-10-16T09:44:50;22.60;55.00
40289;DHT22;28991;52.028;5.526;2022-10-16T09:47:18;22.60;55.10
40289;DHT22;28991;52.028;5.526;2022-10-16T09:52:17;22.50;55.00
40289;DHT22;28991;52.028;5.526;2022-10-16T09:54:53;22.50;54.90
40289;DHT22;28991;52.028;5.526;2022-10-16T09:57:19;22.60;55.00
40289;DHT22;28991;52.028;5.526;2022-10-16T09:59:46;22.60;54.90
40289;DHT22;28991;52.028;5.526;2022-10-16T10:02:13;22.60;54.90
40289;DHT22;28991;52.028;5.526;2022-10-16T10:04:44;22.60;54.90
40289;DHT22;28991;52.028;5.526;2022-10-16T10:07:32;22.70;54.90
40289;DHT22;28991;52.028;5.526;2022-10-16T10:10:01;22.70;55.00
40289;DHT22;28991;52.028;5.526;2022-10-16T10:12:28;22.80;55.00
40289;DHT22;28991;52.028;5.526;2022-10-16T10:15:04;23.00;55.10
40289;DHT22;28991;52.028;5.526;2022-10-16T10:17:30;22.60;54.90
40289;DHT22;28991;52.028;5.526;2022-10-16T10:22:40;22.70;55.00
40289;DHT22;28991;52.028;5.526;2022-10-16T10:30:20;22.70;55.00
40289;DHT22;28991;52.028;5.526;2022-10-16T10:35:22;22.70;55.00
40289;DHT22;28991;52.028;5.526;2022-10-16T10:45:41;22.80;55.00
40289;DHT22;28991;52.028;5.526;2022-10-16T10:50:52;22.60;55.10
40289;DHT22;28991;52.028;5.526;2022-10-16T10:53:41;22.60;55.10
40289;DHT22;28991;52.028;5.526;2022-10-16T10:56:20;22.60;55.10
40289;DHT22;28991;52.028;5.526;2022-10-16T10:59:01;22.60;55.10
40289;DHT22;28991;52.028;5.526;2022-10-16T11:01:40;22.60;55.10
40289;DHT22;28991;52.028;5.526;2022-10-16T11:04:20;22.50;55.10
40289;DHT22;28991;52.028;5.526;2022-10-16T11:06:50;22.50;55.10
40289;DHT22;28991;52.028;5.526;2022-10-16T11:09:18;22.50;55.00
40289;DHT22;28991;52.028;5.526;2022-10-16T11:14:22;22.50;54.80
40289;DHT22;28991;52.028;5.526;2022-10-16T11:16:52;22.50;54.70
40289;DHT22;28991;52.028;5.526;2022-10-16T11:19:25;22.50;54.60
40289;DHT22;28991;52.028;5.526;2022-10-16T11:21:59;22.60;54.70
40289;DHT22;28991;52.028;5.526;2022-10-16T11:24:35;22.50;54.60
40289;DHT22;28991;52.028;5.526;2022-10-16T11:27:03;22.50;54.60
40289;DHT22;28991;52.028;5.526;2022-10-16T11:29:30;22.50;54.70
40289;DHT22;28991;52.028;5.526;2022-10-16T11:31:57;22.50;54.70
40289;DHT22;28991;52.028;5.526;2022-10-16T11:34:38;22.40;54.80
40289;DHT22;28991;52.028;5.526;2022-10-16T11:39:32;22.40;54.90
40289;DHT22;28991;52.028;5.526;2022-10-16T11:42:21;22.40;54.90
40289;DHT22;28991;52.028;5.526;2022-10-16T11:47:24;22.30;55.00
40289;DHT22;28991;52.028;5.526;2022-10-16T11:49:52;22.30;55.10
40289;DHT22;28991;52.028;5.526;2022-10-16T11:52:25;22.30;55.10
40289;DHT22;28991;52.028;5.526;2022-10-16T11:54:55;22.30;55.20
40289;DHT22;28991;52.028;5.526;2022-10-16T11:57:24;22.20;55.30
40289;DHT22;28991;52.028;5.526;2022-10-16T12:07:35;22.10;56.00
40289;DHT22;28991;52.028;5.526;2022-10-16T12:13:03;22.10;55.50
40289;DHT22;28991;52.028;5.526;2022-10-16T12:15:32;22.00;55.50
40289;DHT22;28991;52.028;5.526;2022-10-16T12:17:59;22.10;55.60
40289;DHT22;28991;52.028;5.526;2022-10-16T12:22:54;22.10;55.70
40289;DHT22;28991;52.028;5.526;2022-10-16T12:25:21;22.00;55.70
40289;DHT22;28991;52.028;5.526;2022-10-16T12:27:53;22.00;55.80
40289;DHT22;28991;52.028;5.526;2022-10-16T12:30:20;22.00;55.80
40289;DHT22;28991;52.028;5.526;2022-10-16T12:32:53;21.90;55.90
40289;DHT22;28991;52.028;5.526;2022-10-16T12:35:26;21.90;55.90
40289;DHT22;28991;52.028;5.526;2022-10-16T12:37:52;21.90;55.90
40289;DHT22;28991;52.028;5.526;2022-10-16T12:40:31;21.90;56.00
40289;DHT22;28991;52.028;5.526;2022-10-16T12:42:57;21.90;56.00
40289;DHT22;28991;52.028;5.526;2022-10-16T12:45:27;22.30;56.20
40289;DHT22;28991;52.028;5.526;2022-10-16T12:47:54;21.80;56.00
40289;DHT22;28991;52.028;5.526;2022-10-16T12:50:24;21.80;56.10
40289;DHT22;28991;52.028;5.526;2022-10-16T12:52:50;21.80;56.10
40289;DHT22;28991;52.028;5.526;2022-10-16T12:55:16;22.20;56.30
40289;DHT22;28991;52.028;5.526;2022-10-16T12:57:47;21.70;56.10
40289;DHT22;28991;52.028;5.526;2022-10-16T13:00:41;21.60;56.10
40289;DHT22;28991;52.028;5.526;2022-10-16T13:05:46;21.70;56.20
40289;DHT22;28991;52.028;5.526;2022-10-16T13:08:22;21.70;56.20
40289;DHT22;28991;52.028;5.526;2022-10-16T13:13:37;21.70;56.30
40289;DHT22;28991;52.028;5.526;2022-10-16T13:16:30;21.60;56.20
40289;DHT22;28991;52.028;5.526;2022-10-16T13:26:52;21.60;56.40
40289;DHT22;28991;52.028;5.526;2022-10-16T13:29:20;21.60;56.40
40289;DHT22;28991;52.028;5.526;2022-10-16T13:31:46;21.60;56.40
40289;DHT22;28991;52.028;5.526;2022-10-16T13:34:15;21.60;56.40
40289;DHT22;28991;52.028;5.526;2022-10-16T13:36:43;21.60;56.50
40289;DHT22;28991;52.028;5.526;2022-10-16T13:39:10;21.60;56.50
40289;DHT22;28991;52.028;5.526;2022-10-16T13:41:36;21.60;56.50
40289;DHT22;28991;52.028;5.526;2022-10-16T13:44:02;21.60;56.50
40289;DHT22;28991;52.028;5.526;2022-10-16T13:46:28;21.60;56.50
40289;DHT22;28991;52.028;5.526;2022-10-16T13:51:23;21.60;56.60
40289;DHT22;28991;52.028;5.526;2022-10-16T13:53:48;21.90;56.70
40289;DHT22;28991;52.028;5.526;2022-10-16T13:56:18;21.50;56.50
40289;DHT22;28991;52.028;5.526;2022-10-16T13:58:44;21.60;56.60
40289;DHT22;28991;52.028;5.526;2022-10-16T14:03:41;21.50;56.60
40289;DHT22;28991;52.028;5.526;2022-10-16T14:06:11;21.50;56.60
40289;DHT22;28991;52.028;5.526;2022-10-16T14:08:41;21.50;56.60
40289;DHT22;28991;52.028;5.526;2022-10-16T14:11:07;21.60;56.70
40289;DHT22;28991;52.028;5.526;2022-10-16T14:13:37;21.50;56.70
40289;DHT22;28991;52.028;5.526;2022-10-16T14:16:07;21.50;56.70
40289;DHT22;28991;52.028;5.526;2022-10-16T14:18:32;21.50;56.70
40289;DHT22;28991;52.028;5.526;2022-10-16T14:21:11;21.50;56.70
40289;DHT22;28991;52.028;5.526;2022-10-16T14:23:38;21.50;56.70
40289;DHT22;28991;52.028;5.526;2022-10-16T14:28:36;21.50;56.80
40289;DHT22;28991;52.028;5.526;2022-10-16T14:31:02;21.50;56.80
40289;DHT22;28991;52.028;5.526;2022-10-16T14:33:38;21.40;56.80
40289;DHT22;28991;52.028;5.526;2022-10-16T14:36:05;21.40;56.70
40289;DHT22;28991;52.028;5.526;2022-10-16T14:38:31;21.50;56.80
40289;DHT22;28991;52.028;5.526;2022-10-16T14:40:58;21.40;56.80
40289;DHT22;28991;52.028;5.526;2022-10-16T14:43:27;21.40;56.80
40289;DHT22;28991;52.028;5.526;2022-10-16T14:45:55;21.40;56.80
40289;DHT22;28991;52.028;5.526;2022-10-16T14:48:21;21.40;56.80
40289;DHT22;28991;52.028;5.526;2022-10-16T14:50:46;21.40;56.80
40289;DHT22;28991;52.028;5.526;2022-10-16T14:53:12;21.50;56.90
40289;DHT22;28991;52.028;5.526;2022-10-16T14:55:38;21.40;56.90
40289;DHT22;28991;52.028;5.526;2022-10-16T14:58:04;21.40;57.40
40289;DHT22;28991;52.028;5.526;2022-10-16T15:00:30;21.40;56.90
40289;DHT22;28991;52.028;5.526;2022-10-16T15:02:55;21.40;56.90
40289;DHT22;28991;52.028;5.526;2022-10-16T15:05:22;21.30;56.90
40289;DHT22;28991;52.028;5.526;2022-10-16T15:07:49;21.40;56.90
40289;DHT22;28991;52.028;5.526;2022-10-16T15:10:15;21.40;57.00
40289;DHT22;28991;52.028;5.526;2022-10-16T15:12:40;21.40;57.00
40289;DHT22;28991;52.028;5.526;2022-10-16T15:15:48;21.40;57.00
40289;DHT22;28991;52.028;5.526;2022-10-16T15:17:55;21.40;57.00
40289;DHT22;28991;52.028;5.526;2022-10-16T15:20:25;21.30;57.00
40289;DHT22;28991;52.028;5.526;2022-10-16T15:22:51;21.30;57.00
40289;DHT22;28991;52.028;5.526;2022-10-16T15:25:30;21.30;57.00
40289;DHT22;28991;52.028;5.526;2022-10-16T15:27:57;21.30;57.00
40289;DHT22;28991;52.028;5.526;2022-10-16T15:30:22;21.30;57.00
40289;DHT22;28991;52.028;5.526;2022-10-16T15:32:48;21.40;57.10
40289;DHT22;28991;52.028;5.526;2022-10-16T15:35:14;21.30;57.10
40289;DHT22;28991;52.028;5.526;2022-10-16T15:37:39;21.30;57.10
40289;DHT22;28991;52.028;5.526;2022-10-16T15:40:05;21.40;57.20
40289;DHT22;28991;52.028;5.526;2022-10-16T15:42:30;21.30;57.10
40289;DHT22;28991;52.028;5.526;2022-10-16T15:44:56;21.30;57.10
40289;DHT22;28991;52.028;5.526;2022-10-16T15:47:21;21.30;57.20
40289;DHT22;28991;52.028;5.526;2022-10-16T15:49:47;21.20;57.10
40289;DHT22;28991;52.028;5.526;2022-10-16T15:52:12;21.30;57.20
40289;DHT22;28991;52.028;5.526;2022-10-16T15:54:38;21.20;57.20
40289;DHT22;28991;52.028;5.526;2022-10-16T15:57:03;21.20;57.20
40289;DHT22;28991;52.028;5.526;2022-10-16T15:59:29;21.20;57.20
40289;DHT22;28991;52.028;5.526;2022-10-16T16:01:54;21.20;57.20
40289;DHT22;28991;52.028;5.526;2022-10-16T16:04:19;21.20;57.30
40289;DHT22;28991;52.028;5.526;2022-10-16T16:06:45;21.20;57.30
40289;DHT22;28991;52.028;5.526;2022-10-16T16:09:11;21.20;57.30
40289;DHT22;28991;52.028;5.526;2022-10-16T16:11:37;21.00;57.20
40289;DHT22;28991;52.028;5.526;2022-10-16T16:14:07;21.10;57.30
40289;DHT22;28991;52.028;5.526;2022-10-16T16:16:32;21.10;57.30
40289;DHT22;28991;52.028;5.526;2022-10-16T16:19:04;21.20;57.40
40289;DHT22;28991;52.028;5.526;2022-10-16T16:21:30;21.10;57.30
40289;DHT22;28991;52.028;5.526;2022-10-16T16:23:59;21.10;57.30
40289;DHT22;28991;52.028;5.526;2022-10-16T16:26:25;23.00;58.30
40289;DHT22;28991;52.028;5.526;2022-10-16T16:28:51;21.60;57.60
40289;DHT22;28991;52.028;5.526;2022-10-16T16:31:17;21.10;57.40
40289;DHT22;28991;52.028;5.526;2022-10-16T16:33:42;21.10;57.40
40289;DHT22;28991;52.028;5.526;2022-10-16T16:36:08;21.10;57.40
40289;DHT22;28991;52.028;5.526;2022-10-16T16:38:33;21.00;57.40
40289;DHT22;28991;52.028;5.526;2022-10-16T16:40:59;21.50;57.60
40289;DHT22;28991;52.028;5.526;2022-10-16T16:43:25;21.00;57.40
40289;DHT22;28991;52.028;5.526;2022-10-16T16:45:51;21.00;57.40
40289;DHT22;28991;52.028;5.526;2022-10-16T16:48:17;21.00;57.40
40289;DHT22;28991;52.028;5.526;2022-10-16T16:50:42;21.00;57.50
40289;DHT22;28991;52.028;5.526;2022-10-16T16:53:08;21.00;57.50
40289;DHT22;28991;52.028;5.526;2022-10-16T16:55:33;21.00;57.50
40289;DHT22;28991;52.028;5.526;2022-10-16T16:57:59;21.00;57.50
40289;DHT22;28991;52.028;5.526;2022-10-16T17:00:25;21.00;57.50
40289;DHT22;28991;52.028;5.526;2022-10-16T17:02:50;21.00;57.50
40289;DHT22;28991;52.028;5.526;2022-10-16T17:05:16;21.00;57.60
40289;DHT22;28991;52.028;5.526;2022-10-16T17:07:42;21.00;57.60
40289;DHT22;28991;52.028;5.526;2022-10-16T17:10:08;20.90;57.50
40289;DHT22;28991;52.028;5.526;2022-10-16T17:12:34;20.90;57.60